sensor_id;sensor_type;location;lat;lon;timestamp;temperature;humidity
45104;DHT22;30865;51.288;4.572;2023-07-22T00:00:10;15.10;99.90
45104;DHT22;30865;51.288;4.572;2023-07-22T00:02:41;15.10;99.90
45104;DHT22;30865;51.288;4.572;2023-07-22T00:05:07;15.10;99.90
45104;DHT22;30865;51.288;4.572;2023-07-22T00:07:32;15.10;99.90
45104;DHT22;30865;51.288;4.572;2023-07-22T00:09:59;14.90;99.90
45104;DHT22;30865;51.288;4.572;2023-07-22T00:12:25;14.90;99.90
45104;DHT22;30865;51.288;4.572;2023-07-22T00:14:51;14.90;99.90
45104;DHT22;30865;51.288;4.572;2023-07-22T00:17:18;14.80;99.90
45104;DHT22;30865;51.288;4.572;2023-07-22T00:19:43;14.80;99.90
45104;DHT22;30865;51.288;4.572;2023-07-22T00:22:09;14.70;99.90
45104;DHT22;30865;51.288;4.572;2023-07-22T00:24:34;14.70;99.90
45104;DHT22;30865;51.288;4.572;2023-07-22T00:27:00;14.60;99.90
45104;DHT22;30865;51.288;4.572;2023-07-22T00:29:25;14.50;99.90
45104;DHT22;30865;51.288;4.572;2023-07-22T00:31:51;14.50;99.90
45104;DHT22;30865;51.288;4.572;2023-07-22T00:34:17;14.50;99.90
45104;DHT22;30865;51.288;4.572;2023-07-22T00:36:42;14.50;99.90
45104;DHT22;30865;51.288;4.572;2023-07-22T00:39:09;14.60;99.90
45104;DHT22;30865;51.288;4.572;2023-07-22T00:41:34;14.50;99.90
45104;DHT22;30865;51.288;4.572;2023-07-22T00:44:00;14.50;99.90
45104;DHT22;30865;51.288;4.572;2023-07-22T00:46:25;14.50;99.90
45104;DHT22;30865;51.288;4.572;2023-07-22T00:48:51;14.50;99.90
45104;DHT22;30865;51.288;4.572;2023-07-22T00:51:17;14.40;99.90
45104;DHT22;30865;51.288;4.572;2023-07-22T00:53:43;14.40;99.90
45104;DHT22;30865;51.288;4.572;2023-07-22T00:56:09;14.30;99.90
45104;DHT22;30865;51.288;4.572;2023-07-22T00:58:34;14.30;99.90
45104;DHT22;30865;51.288;4.572;2023-07-22T01:01:00;14.20;99.90
45104;DHT22;30865;51.288;4.572;2023-07-22T01:03:25;14.20;99.90
45104;DHT22;30865;51.288;4.572;2023-07-22T01:05:52;14.20;99.90
45104;DHT22;30865;51.288;4.572;2023-07-22T01:08:18;14.20;99.90
45104;DHT22;30865;51.288;4.572;2023-07-22T01:10:44;14.20;99.90
45104;DHT22;30865;51.288;4.572;2023-07-22T01:13:09;14.20;99.90
45104;DHT22;30865;51.288;4.572;2023-07-22T01:15:35;14.20;99.90
45104;DHT22;30865;51.288;4.572;2023-07-22T01:18:03;14.10;99.90
45104;DHT22;30865;51.288;4.572;2023-07-22T01:20:29;14.10;99.90
45104;DHT22;30865;51.288;4.572;2023-07-22T01:22:55;14.10;99.90
45104;DHT22;30865;51.288;4.572;2023-07-22T01:25:21;14.00;99.90
45104;DHT22;30865;51.288;4.572;2023-07-22T01:27:48;14.00;99.90
45104;DHT22;30865;51.288;4.572;2023-07-22T01:30:13;14.00;99.90
45104;DHT22;30865;51.288;4.572;2023-07-22T01:32:39;14.00;99.90
45104;DHT22;30865;51.288;4.572;2023-07-22T01:35:06;13.90;99.90
45104;DHT22;30865;51.288;4.572;2023-07-22T01:37:33;14.00;99.90
45104;DHT22;30865;51.288;4.572;2023-07-22T01:39:59;14.00;99.90
45104;DHT22;30865;51.288;4.572;2023-07-22T01:42:24;14.00;99.90
45104;DHT22;30865;51.288;4.572;2023-07-22T01:44:56;14.00;99.90
45104;DHT22;30865;51.288;4.572;2023-07-22T01:47:22;14.00;99.90
45104;DHT22;30865;51.288;4.572;2023-07-22T01:49:47;13.90;99.90
45104;DHT22;30865;51.288;4.572;2023-07-22T01:52:13;13.90;99.90
45104;DHT22;30865;51.288;4.572;2023-07-22T01:54:38;13.90;99.90
45104;DHT22;30865;51.288;4.572;2023-07-22T01:57:04;13.90;99.90
45104;DHT22;30865;51.288;4.572;2023-07-22T01:59:30;13.90;99.90
45104;DHT22;30865;51.288;4.572;2023-07-22T02:01:55;13.80;99.90
45104;DHT22;30865;51.288;4.572;2023-07-22T02:04:21;13.70;99.90
45104;DHT22;30865;51.288;4.572;2023-07-22T02:06:46;13.80;99.90
45104;DHT22;30865;51.288;4.572;2023-07-22T02:09:12;13.70;99.90
45104;DHT22;30865;51.288;4.572;2023-07-22T02:11:39;13.70;99.90
45104;DHT22;30865;51.288;4.572;2023-07-22T02:14:04;13.70;99.90
45104;DHT22;30865;51.288;4.572;2023-07-22T02:16:33;13.70;99.90
45104;DHT22;30865;51.288;4.572;2023-07-22T02:18:59;13.70;99.90
45104;DHT22;30865;51.288;4.572;2023-07-22T02:21:24;13.60;99.90
45104;DHT22;30865;51.288;4.572;2023-07-22T02:23:50;13.60;99.90
45104;DHT22;30865;51.288;4.572;2023-07-22T02:26:15;13.70;99.90
45104;DHT22;30865;51.288;4.572;2023-07-22T02:28:41;13.70;99.90
45104;DHT22;30865;51.288;4.572;2023-07-22T02:31:06;13.60;99.90
45104;DHT22;30865;51.288;4.572;2023-07-22T02:33:32;13.50;99.90
45104;DHT22;30865;51.288;4.572;2023-07-22T02:35:58;13.60;99.90
45104;DHT22;30865;51.288;4.572;2023-07-22T02:38:23;13.60;99.90
45104;DHT22;30865;51.288;4.572;2023-07-22T02:40:49;13.60;99.90
45104;DHT22;30865;51.288;4.572;2023-07-22T02:43:14;13.60;99.90
45104;DHT22;30865;51.288;4.572;2023-07-22T02:45:40;13.50;99.90
45104;DHT22;30865;51.288;4.572;2023-07-22T02:48:06;13.50;99.90
45104;DHT22;30865;51.288;4.572;2023-07-22T02:50:31;13.50;99.90
45104;DHT22;30865;51.288;4.572;2023-07-22T02:52:57;13.50;99.90
45104;DHT22;30865;51.288;4.572;2023-07-22T02:55:23;13.50;99.90
45104;DHT22;30865;51.288;4.572;2023-07-22T02:57:51;13.50;99.90
45104;DHT22;30865;51.288;4.572;2023-07-22T03:00:18;13.40;99.90
45104;DHT22;30865;51.288;4.572;2023-07-22T03:02:54;13.40;99.90
45104;DHT22;30865;51.288;4.572;2023-07-22T03:05:27;13.40;99.90
45104;DHT22;30865;51.288;4.572;2023-07-22T03:08:00;13.40;99.90
45104;DHT22;30865;51.288;4.572;2023-07-22T03:10:26;13.40;99.90
45104;DHT22;30865;51.288;4.572;2023-07-22T03:12:52;13.40;99.90
45104;DHT22;30865;51.288;4.572;2023-07-22T03:15:22;13.50;99.90
45104;DHT22;30865;51.288;4.572;2023-07-22T03:17:47;13.50;99.90
45104;DHT22;30865;51.288;4.572;2023-07-22T03:20:13;13.60;99.90
45104;DHT22;30865;51.288;4.572;2023-07-22T03:22:43;13.50;99.90
45104;DHT22;30865;51.288;4.572;2023-07-22T03:25:09;13.50;99.90
45104;DHT22;30865;51.288;4.572;2023-07-22T03:27:36;13.50;99.90
45104;DHT22;30865;51.288;4.572;2023-07-22T03:30:03;13.50;99.90
45104;DHT22;30865;51.288;4.572;2023-07-22T03:32:28;13.50;99.90
45104;DHT22;30865;51.288;4.572;2023-07-22T03:34:54;13.50;99.90
45104;DHT22;30865;51.288;4.572;2023-07-22T03:37:19;13.50;99.90
45104;DHT22;30865;51.288;4.572;2023-07-22T03:39:45;13.50;99.90
45104;DHT22;30865;51.288;4.572;2023-07-22T03:42:11;13.40;99.90
45104;DHT22;30865;51.288;4.572;2023-07-22T03:44:37;13.40;99.90
45104;DHT22;30865;51.288;4.572;2023-07-22T03:47:02;13.40;99.90
45104;DHT22;30865;51.288;4.572;2023-07-22T03:49:28;13.40;99.90
45104;DHT22;30865;51.288;4.572;2023-07-22T03:51:53;13.40;99.90
45104;DHT22;30865;51.288;4.572;2023-07-22T03:54:19;13.40;99.90
45104;DHT22;30865;51.288;4.572;2023-07-22T03:56:44;13.40;99.90
45104;DHT22;30865;51.288;4.572;2023-07-22T03:59:10;13.40;99.90
45104;DHT22;30865;51.288;4.572;2023-07-22T04:01:35;13.40;99.90
45104;DHT22;30865;51.288;4.572;2023-07-22T04:04:01;13.40;99.90
45104;DHT22;30865;51.288;4.572;2023-07-22T04:06:26;13.50;99.90
45104;DHT22;30865;51.288;4.572;2023-07-22T04:08:52;13.50;99.90
45104;DHT22;30865;51.288;4.572;2023-07-22T04:11:17;13.50;99.90
45104;DHT22;30865;51.288;4.572;2023-07-22T04:13:43;13.60;99.90
45104;DHT22;30865;51.288;4.572;2023-07-22T04:16:08;13.50;99.90
45104;DHT22;30865;51.288;4.572;2023-07-22T04:18:34;13.50;99.90
45104;DHT22;30865;51.288;4.572;2023-07-22T04:21:00;13.50;99.90
45104;DHT22;30865;51.288;4.572;2023-07-22T04:23:26;13.50;99.90
45104;DHT22;30865;51.288;4.572;2023-07-22T04:25:51;13.60;99.90
45104;DHT22;30865;51.288;4.572;2023-07-22T04:28:17;13.60;99.90
45104;DHT22;30865;51.288;4.572;2023-07-22T04:30:42;13.60;99.90
45104;DHT22;30865;51.288;4.572;2023-07-22T04:33:08;13.60;99.90
45104;DHT22;30865;51.288;4.572;2023-07-22T04:35:40;13.60;99.90
45104;DHT22;30865;51.288;4.572;2023-07-22T04:38:06;13.70;99.90
45104;DHT22;30865;51.288;4.572;2023-07-22T04:40:32;13.70;99.90
45104;DHT22;30865;51.288;4.572;2023-07-22T04:42:57;13.70;99.90
45104;DHT22;30865;51.288;4.572;2023-07-22T04:45:23;13.70;99.90
45104;DHT22;30865;51.288;4.572;2023-07-22T04:47:52;13.70;99.90
45104;DHT22;30865;51.288;4.572;2023-07-22T04:50:18;13.80;99.90
45104;DHT22;30865;51.288;4.572;2023-07-22T04:52:47;13.80;99.90
45104;DHT22;30865;51.288;4.572;2023-07-22T04:55:13;13.70;99.90
45104;DHT22;30865;51.288;4.572;2023-07-22T04:57:40;13.80;99.90
45104;DHT22;30865;51.288;4.572;2023-07-22T05:00:11;13.80;99.90
45104;DHT22;30865;51.288;4.572;2023-07-22T05:02:40;13.90;99.90
45104;DHT22;30865;51.288;4.572;2023-07-22T05:05:06;14.10;99.90
45104;DHT22;30865;51.288;4.572;2023-07-22T05:07:32;14.20;99.90
45104;DHT22;30865;51.288;4.572;2023-07-22T05:09:57;14.30;99.90
45104;DHT22;30865;51.288;4.572;2023-07-22T05:12:23;14.40;99.90
45104;DHT22;30865;51.288;4.572;2023-07-22T05:14:49;14.40;99.90
45104;DHT22;30865;51.288;4.572;2023-07-22T05:17:15;14.40;99.90
45104;DHT22;30865;51.288;4.572;2023-07-22T05:19:40;14.40;99.90
45104;DHT22;30865;51.288;4.572;2023-07-22T05:22:06;14.40;99.90
45104;DHT22;30865;51.288;4.572;2023-07-22T05:24:32;14.40;99.90
45104;DHT22;30865;51.288;4.572;2023-07-22T05:26:58;14.30;99.90
45104;DHT22;30865;51.288;4.572;2023-07-22T05:29:23;14.30;99.90
45104;DHT22;30865;51.288;4.572;2023-07-22T05:31:49;14.30;99.90
45104;DHT22;30865;51.288;4.572;2023-07-22T05:34:14;14.40;99.90
45104;DHT22;30865;51.288;4.572;2023-07-22T05:36:40;14.40;99.90
45104;DHT22;30865;51.288;4.572;2023-07-22T05:39:05;14.40;99.90
45104;DHT22;30865;51.288;4.572;2023-07-22T05:41:33;14.50;99.90
45104;DHT22;30865;51.288;4.572;2023-07-22T05:43:58;14.50;99.90
45104;DHT22;30865;51.288;4.572;2023-07-22T05:46:24;14.50;99.90
45104;DHT22;30865;51.288;4.572;2023-07-22T05:48:49;14.70;99.90
45104;DHT22;30865;51.288;4.572;2023-07-22T05:51:15;14.70;99.90
45104;DHT22;30865;51.288;4.572;2023-07-22T05:53:40;14.80;99.90
45104;DHT22;30865;51.288;4.572;2023-07-22T05:56:06;14.80;99.90
45104;DHT22;30865;51.288;4.572;2023-07-22T05:58:31;14.90;99.90
45104;DHT22;30865;51.288;4.572;2023-07-22T06:00:57;15.00;99.90
45104;DHT22;30865;51.288;4.572;2023-07-22T06:03:22;15.20;99.90
45104;DHT22;30865;51.288;4.572;2023-07-22T06:05:48;15.30;99.90
45104;DHT22;30865;51.288;4.572;2023-07-22T06:08:14;15.50;99.90
45104;DHT22;30865;51.288;4.572;2023-07-22T06:10:42;15.50;99.90
45104;DHT22;30865;51.288;4.572;2023-07-22T06:13:08;15.70;99.90
45104;DHT22;30865;51.288;4.572;2023-07-22T06:15:33;15.90;99.90
45104;DHT22;30865;51.288;4.572;2023-07-22T06:18:00;15.90;99.90
45104;DHT22;30865;51.288;4.572;2023-07-22T06:20:26;16.00;99.90
45104;DHT22;30865;51.288;4.572;2023-07-22T06:22:51;16.20;99.90
45104;DHT22;30865;51.288;4.572;2023-07-22T06:25:17;16.30;99.90
45104;DHT22;30865;51.288;4.572;2023-07-22T06:27:43;16.50;99.90
45104;DHT22;30865;51.288;4.572;2023-07-22T06:30:09;16.80;99.90
45104;DHT22;30865;51.288;4.572;2023-07-22T06:32:37;17.00;99.90
45104;DHT22;30865;51.288;4.572;2023-07-22T06:35:02;17.10;99.90
45104;DHT22;30865;51.288;4.572;2023-07-22T06:37:29;17.20;99.90
45104;DHT22;30865;51.288;4.572;2023-07-22T06:39:54;17.30;99.90
45104;DHT22;30865;51.288;4.572;2023-07-22T06:42:20;17.30;99.90
45104;DHT22;30865;51.288;4.572;2023-07-22T06:44:45;17.40;99.90
45104;DHT22;30865;51.288;4.572;2023-07-22T06:47:11;17.60;99.90
45104;DHT22;30865;51.288;4.572;2023-07-22T06:49:36;17.50;99.90
45104;DHT22;30865;51.288;4.572;2023-07-22T06:52:02;17.70;99.90
45104;DHT22;30865;51.288;4.572;2023-07-22T06:54:28;17.80;99.90
45104;DHT22;30865;51.288;4.572;2023-07-22T06:56:53;17.90;99.90
45104;DHT22;30865;51.288;4.572;2023-07-22T06:59:19;18.00;99.90
45104;DHT22;30865;51.288;4.572;2023-07-22T07:01:45;18.20;99.90
45104;DHT22;30865;51.288;4.572;2023-07-22T07:04:10;18.30;99.90
45104;DHT22;30865;51.288;4.572;2023-07-22T07:06:36;18.60;99.90
45104;DHT22;30865;51.288;4.572;2023-07-22T07:09:03;18.70;99.90
45104;DHT22;30865;51.288;4.572;2023-07-22T07:11:29;18.80;99.90
45104;DHT22;30865;51.288;4.572;2023-07-22T07:13:55;18.80;99.90
45104;DHT22;30865;51.288;4.572;2023-07-22T07:16:25;18.90;99.90
45104;DHT22;30865;51.288;4.572;2023-07-22T07:18:51;19.00;99.90
45104;DHT22;30865;51.288;4.572;2023-07-22T07:21:18;19.00;99.90
45104;DHT22;30865;51.288;4.572;2023-07-22T07:23:44;19.10;99.90
45104;DHT22;30865;51.288;4.572;2023-07-22T07:26:09;19.30;99.90
45104;DHT22;30865;51.288;4.572;2023-07-22T07:28:35;19.50;99.90
45104;DHT22;30865;51.288;4.572;2023-07-22T07:31:01;19.70;99.90
45104;DHT22;30865;51.288;4.572;2023-07-22T07:33:26;19.80;99.90
45104;DHT22;30865;51.288;4.572;2023-07-22T07:35:52;19.80;99.90
45104;DHT22;30865;51.288;4.572;2023-07-22T07:38:17;20.00;99.90
45104;DHT22;30865;51.288;4.572;2023-07-22T07:40:43;20.20;99.90
45104;DHT22;30865;51.288;4.572;2023-07-22T07:43:08;20.40;99.90
45104;DHT22;30865;51.288;4.572;2023-07-22T07:45:38;20.50;99.90
45104;DHT22;30865;51.288;4.572;2023-07-22T07:48:04;20.60;99.90
45104;DHT22;30865;51.288;4.572;2023-07-22T07:50:30;20.50;99.90
45104;DHT22;30865;51.288;4.572;2023-07-22T07:52:55;21.00;99.90
45104;DHT22;30865;51.288;4.572;2023-07-22T07:55:20;21.30;99.90
45104;DHT22;30865;51.288;4.572;2023-07-22T07:57:46;21.30;99.90
45104;DHT22;30865;51.288;4.572;2023-07-22T08:00:12;21.20;99.90
45104;DHT22;30865;51.288;4.572;2023-07-22T08:02:37;21.40;99.90
45104;DHT22;30865;51.288;4.572;2023-07-22T08:05:03;21.50;99.90
45104;DHT22;30865;51.288;4.572;2023-07-22T08:07:28;21.40;99.90
45104;DHT22;30865;51.288;4.572;2023-07-22T08:09:54;21.70;99.90
45104;DHT22;30865;51.288;4.572;2023-07-22T08:12:19;22.00;99.70
45104;DHT22;30865;51.288;4.572;2023-07-22T08:14:45;22.00;96.10
45104;DHT22;30865;51.288;4.572;2023-07-22T08:17:11;22.10;95.70
45104;DHT22;30865;51.288;4.572;2023-07-22T08:19:36;22.30;96.10
45104;DHT22;30865;51.288;4.572;2023-07-22T08:22:02;22.60;96.50
45104;DHT22;30865;51.288;4.572;2023-07-22T08:24:27;22.70;96.10
45104;DHT22;30865;51.288;4.572;2023-07-22T08:26:53;22.90;94.80
45104;DHT22;30865;51.288;4.572;2023-07-22T08:29:18;22.70;91.50
45104;DHT22;30865;51.288;4.572;2023-07-22T08:31:44;22.80;93.20
45104;DHT22;30865;51.288;4.572;2023-07-22T08:34:09;22.80;90.60
45104;DHT22;30865;51.288;4.572;2023-07-22T08:36:35;23.10;91.00
45104;DHT22;30865;51.288;4.572;2023-07-22T08:39:01;23.30;83.40
45104;DHT22;30865;51.288;4.572;2023-07-22T08:41:27;23.40;90.70
45104;DHT22;30865;51.288;4.572;2023-07-22T08:43:54;23.50;92.60
45104;DHT22;30865;51.288;4.572;2023-07-22T08:46:22;23.80;75.10
45104;DHT22;30865;51.288;4.572;2023-07-22T08:48:49;23.60;84.70
45104;DHT22;30865;51.288;4.572;2023-07-22T08:51:17;23.60;78.20
45104;DHT22;30865;51.288;4.572;2023-07-22T08:53:44;23.60;72.70
45104;DHT22;30865;51.288;4.572;2023-07-22T08:56:11;24.00;71.30
45104;DHT22;30865;51.288;4.572;2023-07-22T08:58:38;23.90;69.10
45104;DHT22;30865;51.288;4.572;2023-07-22T09:01:05;24.10;76.00
45104;DHT22;30865;51.288;4.572;2023-07-22T09:03:31;23.90;71.80
45104;DHT22;30865;51.288;4.572;2023-07-22T09:05:57;23.80;64.80
45104;DHT22;30865;51.288;4.572;2023-07-22T09:08:23;23.90;68.00
45104;DHT22;30865;51.288;4.572;2023-07-22T09:10:49;24.10;64.50
45104;DHT22;30865;51.288;4.572;2023-07-22T09:13:15;23.70;69.00
45104;DHT22;30865;51.288;4.572;2023-07-22T09:15:41;23.90;70.30
45104;DHT22;30865;51.288;4.572;2023-07-22T09:18:07;24.00;74.60
45104;DHT22;30865;51.288;4.572;2023-07-22T09:20:33;23.90;80.60
45104;DHT22;30865;51.288;4.572;2023-07-22T09:23:00;24.00;80.40
45104;DHT22;30865;51.288;4.572;2023-07-22T09:25:27;23.70;71.00
45104;DHT22;30865;51.288;4.572;2023-07-22T09:27:55;23.70;77.70
45104;DHT22;30865;51.288;4.572;2023-07-22T09:30:33;23.70;65.70
45104;DHT22;30865;51.288;4.572;2023-07-22T09:33:04;23.60;73.60
45104;DHT22;30865;51.288;4.572;2023-07-22T09:35:31;23.70;67.20
45104;DHT22;30865;51.288;4.572;2023-07-22T09:37:58;23.60;72.20
45104;DHT22;30865;51.288;4.572;2023-07-22T09:40:28;23.60;73.20
45104;DHT22;30865;51.288;4.572;2023-07-22T09:42:57;23.60;72.80
45104;DHT22;30865;51.288;4.572;2023-07-22T09:45:30;23.50;75.70
45104;DHT22;30865;51.288;4.572;2023-07-22T09:47:56;23.70;71.50
45104;DHT22;30865;51.288;4.572;2023-07-22T09:50:26;23.80;74.60
45104;DHT22;30865;51.288;4.572;2023-07-22T09:52:56;24.30;81.20
45104;DHT22;30865;51.288;4.572;2023-07-22T09:55:25;25.20;63.30
45104;DHT22;30865;51.288;4.572;2023-07-22T09:57:58;25.50;58.10
45104;DHT22;30865;51.288;4.572;2023-07-22T10:00:31;26.00;63.20
45104;DHT22;30865;51.288;4.572;2023-07-22T10:02:58;25.60;54.80
45104;DHT22;30865;51.288;4.572;2023-07-22T10:05:25;25.50;74.10
45104;DHT22;30865;51.288;4.572;2023-07-22T10:07:56;25.10;57.10
45104;DHT22;30865;51.288;4.572;2023-07-22T10:10:35;25.20;67.90
45104;DHT22;30865;51.288;4.572;2023-07-22T10:13:02;25.20;63.50
45104;DHT22;30865;51.288;4.572;2023-07-22T10:15:29;25.20;56.20
45104;DHT22;30865;51.288;4.572;2023-07-22T10:17:56;25.30;56.20
45104;DHT22;30865;51.288;4.572;2023-07-22T10:20:23;25.30;55.90
45104;DHT22;30865;51.288;4.572;2023-07-22T10:22:49;25.50;56.10
45104;DHT22;30865;51.288;4.572;2023-07-22T10:25:16;26.10;63.10
45104;DHT22;30865;51.288;4.572;2023-07-22T10:27:43;25.90;55.10
45104;DHT22;30865;51.288;4.572;2023-07-22T10:30:13;25.70;50.10
45104;DHT22;30865;51.288;4.572;2023-07-22T10:32:40;25.60;53.80
45104;DHT22;30865;51.288;4.572;2023-07-22T10:35:11;25.40;56.30
45104;DHT22;30865;51.288;4.572;2023-07-22T10:37:38;25.30;54.60
45104;DHT22;30865;51.288;4.572;2023-07-22T10:40:26;25.30;53.80
45104;DHT22;30865;51.288;4.572;2023-07-22T10:43:05;25.00;47.70
45104;DHT22;30865;51.288;4.572;2023-07-22T10:45:43;25.40;48.40
45104;DHT22;30865;51.288;4.572;2023-07-22T10:48:10;25.40;47.50
45104;DHT22;30865;51.288;4.572;2023-07-22T10:50:47;26.00;48.70
45104;DHT22;30865;51.288;4.572;2023-07-22T10:56:05;25.30;46.90
45104;DHT22;30865;51.288;4.572;2023-07-22T10:59:17;25.50;46.70
45104;DHT22;30865;51.288;4.572;2023-07-22T11:07:02;25.60;47.50
45104;DHT22;30865;51.288;4.572;2023-07-22T11:12:08;26.00;51.50
45104;DHT22;30865;51.288;4.572;2023-07-22T11:14:41;26.10;47.30
45104;DHT22;30865;51.288;4.572;2023-07-22T11:17:10;25.50;48.30
45104;DHT22;30865;51.288;4.572;2023-07-22T11:19:36;25.00;48.50
45104;DHT22;30865;51.288;4.572;2023-07-22T11:22:03;25.20;50.70
45104;DHT22;30865;51.288;4.572;2023-07-22T11:24:28;25.30;50.60
45104;DHT22;30865;51.288;4.572;2023-07-22T11:26:54;25.50;52.90
45104;DHT22;30865;51.288;4.572;2023-07-22T11:29:20;25.50;49.30
45104;DHT22;30865;51.288;4.572;2023-07-22T11:31:48;25.60;49.80
45104;DHT22;30865;51.288;4.572;2023-07-22T11:34:15;25.40;49.90
45104;DHT22;30865;51.288;4.572;2023-07-22T11:36:41;25.90;57.60
45104;DHT22;30865;51.288;4.572;2023-07-22T11:39:09;26.20;54.10
45104;DHT22;30865;51.288;4.572;2023-07-22T11:41:35;26.40;49.20
45104;DHT22;30865;51.288;4.572;2023-07-22T11:44:02;26.40;48.00
45104;DHT22;30865;51.288;4.572;2023-07-22T11:46:32;26.70;47.00
45104;DHT22;30865;51.288;4.572;2023-07-22T11:48:59;26.50;51.10
45104;DHT22;30865;51.288;4.572;2023-07-22T11:51:25;26.70;46.90
45104;DHT22;30865;51.288;4.572;2023-07-22T11:53:52;27.20;45.80
45104;DHT22;30865;51.288;4.572;2023-07-22T11:56:25;27.50;46.50
45104;DHT22;30865;51.288;4.572;2023-07-22T11:58:55;27.50;44.80
45104;DHT22;30865;51.288;4.572;2023-07-22T12:01:22;27.80;46.30
45104;DHT22;30865;51.288;4.572;2023-07-22T12:03:49;27.80;46.80
45104;DHT22;30865;51.288;4.572;2023-07-22T12:06:15;28.10;47.30
45104;DHT22;30865;51.288;4.572;2023-07-22T12:08:48;27.30;45.40
45104;DHT22;30865;51.288;4.572;2023-07-22T12:11:18;27.10;46.40
45104;DHT22;30865;51.288;4.572;2023-07-22T12:13:44;26.50;46.00
45104;DHT22;30865;51.288;4.572;2023-07-22T12:16:12;26.20;47.00
45104;DHT22;30865;51.288;4.572;2023-07-22T12:18:44;26.50;46.90
45104;DHT22;30865;51.288;4.572;2023-07-22T12:21:10;26.70;46.40
45104;DHT22;30865;51.288;4.572;2023-07-22T12:23:36;26.80;46.60
45104;DHT22;30865;51.288;4.572;2023-07-22T12:26:03;27.50;47.50
45104;DHT22;30865;51.288;4.572;2023-07-22T12:28:29;27.20;45.10
45104;DHT22;30865;51.288;4.572;2023-07-22T12:30:54;26.90;47.30
45104;DHT22;30865;51.288;4.572;2023-07-22T12:33:22;27.10;47.20
45104;DHT22;30865;51.288;4.572;2023-07-22T12:35:49;27.40;46.10
45104;DHT22;30865;51.288;4.572;2023-07-22T12:38:15;27.30;46.20
45104;DHT22;30865;51.288;4.572;2023-07-22T12:40:40;27.50;47.50
45104;DHT22;30865;51.288;4.572;2023-07-22T12:43:06;27.70;46.20
45104;DHT22;30865;51.288;4.572;2023-07-22T12:45:31;27.40;46.40
45104;DHT22;30865;51.288;4.572;2023-07-22T12:47:57;27.60;45.30
45104;DHT22;30865;51.288;4.572;2023-07-22T12:50:22;28.10;44.10
45104;DHT22;30865;51.288;4.572;2023-07-22T12:52:48;28.20;44.50
45104;DHT22;30865;51.288;4.572;2023-07-22T12:55:13;28.40;43.70
45104;DHT22;30865;51.288;4.572;2023-07-22T12:57:39;27.00;45.20
45104;DHT22;30865;51.288;4.572;2023-07-22T13:00:05;26.80;45.70
45104;DHT22;30865;51.288;4.572;2023-07-22T13:02:37;27.60;44.90
45104;DHT22;30865;51.288;4.572;2023-07-22T13:05:02;28.30;42.40
45104;DHT22;30865;51.288;4.572;2023-07-22T13:07:28;28.40;42.00
45104;DHT22;30865;51.288;4.572;2023-07-22T13:09:58;28.40;43.40
45104;DHT22;30865;51.288;4.572;2023-07-22T13:12:25;29.10;42.00
45104;DHT22;30865;51.288;4.572;2023-07-22T13:14:51;28.90;41.30
45104;DHT22;30865;51.288;4.572;2023-07-22T13:17:16;28.20;41.40
45104;DHT22;30865;51.288;4.572;2023-07-22T13:19:42;28.30;41.90
45104;DHT22;30865;51.288;4.572;2023-07-22T13:22:07;28.70;40.30
45104;DHT22;30865;51.288;4.572;2023-07-22T13:24:33;29.00;39.90
45104;DHT22;30865;51.288;4.572;2023-07-22T13:26:58;29.20;42.30
45104;DHT22;30865;51.288;4.572;2023-07-22T13:29:24;28.90;40.60
45104;DHT22;30865;51.288;4.572;2023-07-22T13:31:49;28.70;42.70
45104;DHT22;30865;51.288;4.572;2023-07-22T13:34:15;29.20;40.40
45104;DHT22;30865;51.288;4.572;2023-07-22T13:36:40;28.40;40.30
45104;DHT22;30865;51.288;4.572;2023-07-22T13:39:06;28.50;40.00
45104;DHT22;30865;51.288;4.572;2023-07-22T13:41:31;28.40;39.50
45104;DHT22;30865;51.288;4.572;2023-07-22T13:43:57;27.70;41.70
45104;DHT22;30865;51.288;4.572;2023-07-22T13:46:22;27.10;42.00
45104;DHT22;30865;51.288;4.572;2023-07-22T13:48:48;27.60;41.60
45104;DHT22;30865;51.288;4.572;2023-07-22T13:51:14;28.00;40.40
45104;DHT22;30865;51.288;4.572;2023-07-22T13:53:39;28.20;40.20
45104;DHT22;30865;51.288;4.572;2023-07-22T13:56:05;28.60;39.90
45104;DHT22;30865;51.288;4.572;2023-07-22T13:58:30;28.30;39.60
45104;DHT22;30865;51.288;4.572;2023-07-22T14:00:56;27.70;40.70
45104;DHT22;30865;51.288;4.572;2023-07-22T14:03:21;27.60;40.70
45104;DHT22;30865;51.288;4.572;2023-07-22T14:05:46;27.60;41.40
45104;DHT22;30865;51.288;4.572;2023-07-22T14:08:12;27.60;41.00
45104;DHT22;30865;51.288;4.572;2023-07-22T14:10:38;28.00;41.20
45104;DHT22;30865;51.288;4.572;2023-07-22T14:13:03;28.20;41.40
45104;DHT22;30865;51.288;4.572;2023-07-22T14:15:29;28.70;40.20
45104;DHT22;30865;51.288;4.572;2023-07-22T14:17:54;27.90;40.80
45104;DHT22;30865;51.288;4.572;2023-07-22T14:20:20;28.10;43.10
45104;DHT22;30865;51.288;4.572;2023-07-22T14:22:45;28.00;41.80
45104;DHT22;30865;51.288;4.572;2023-07-22T14:25:11;27.80;40.90
45104;DHT22;30865;51.288;4.572;2023-07-22T14:27:39;28.20;41.20
45104;DHT22;30865;51.288;4.572;2023-07-22T14:30:06;29.50;40.30
45104;DHT22;30865;51.288;4.572;2023-07-22T14:32:31;30.10;38.10
45104;DHT22;30865;51.288;4.572;2023-07-22T14:34:57;28.90;38.50
45104;DHT22;30865;51.288;4.572;2023-07-22T14:37:23;29.30;39.50
45104;DHT22;30865;51.288;4.572;2023-07-22T14:39:49;29.90;39.00
45104;DHT22;30865;51.288;4.572;2023-07-22T14:42:15;29.20;38.70
45104;DHT22;30865;51.288;4.572;2023-07-22T14:44:40;29.30;38.50
45104;DHT22;30865;51.288;4.572;2023-07-22T14:47:06;29.50;38.20
45104;DHT22;30865;51.288;4.572;2023-07-22T14:49:31;28.80;38.10
45104;DHT22;30865;51.288;4.572;2023-07-22T14:51:57;30.40;37.40
45104;DHT22;30865;51.288;4.572;2023-07-22T14:54:22;29.30;37.80
45104;DHT22;30865;51.288;4.572;2023-07-22T14:56:48;29.40;38.90
45104;DHT22;30865;51.288;4.572;2023-07-22T14:59:15;28.80;41.30
45104;DHT22;30865;51.288;4.572;2023-07-22T15:01:40;28.20;41.30
45104;DHT22;30865;51.288;4.572;2023-07-22T15:04:06;28.20;41.50
45104;DHT22;30865;51.288;4.572;2023-07-22T15:06:32;28.60;40.40
45104;DHT22;30865;51.288;4.572;2023-07-22T15:08:58;28.10;39.30
45104;DHT22;30865;51.288;4.572;2023-07-22T15:11:23;28.50;39.00
45104;DHT22;30865;51.288;4.572;2023-07-22T15:13:49;28.30;39.30
45104;DHT22;30865;51.288;4.572;2023-07-22T15:16:15;28.00;39.50
45104;DHT22;30865;51.288;4.572;2023-07-22T15:18:41;27.30;39.90
45104;DHT22;30865;51.288;4.572;2023-07-22T15:21:07;27.00;41.80
45104;DHT22;30865;51.288;4.572;2023-07-22T15:23:32;27.00;42.10
45104;DHT22;30865;51.288;4.572;2023-07-22T15:25:58;26.90;41.70
45104;DHT22;30865;51.288;4.572;2023-07-22T15:28:24;27.10;42.20
45104;DHT22;30865;51.288;4.572;2023-07-22T15:30:50;26.90;42.30
45104;DHT22;30865;51.288;4.572;2023-07-22T15:33:16;27.20;41.60
45104;DHT22;30865;51.288;4.572;2023-07-22T15:35:41;27.50;41.40